Time;durP1;ratioP1;P1;durP2;ratioP2;P2;SDS_P1;SDS_P2;PMS_P1;PMS_P2;Temp;Humidity;BMP_temperature;BMP_pressure;BME280_temperature;BME280_humidity;BME280_pressure;Samples;Min_cycle;Max_cycle;Signal;HPM_P1;HPM_P2
2022/05/30 00:01:36;;;;;;;;;;;10.30;99.90;;;;;;5135641;27;20442;-89
2022/05/30 00:04:01;;;;;;;;;;;10.40;99.90;;;;;;5136621;27;19904;-89
2022/05/30 00:06:29;;;;;;;;;;;10.50;99.90;;;;;;5127931;27;19911;-88
2022/05/30 00:08:55;;;;;;;;;;;10.50;99.90;;;;;;5134842;27;20382;-88
2022/05/30 00:11:21;;;;;;;;;;;10.60;99.90;;;;;;5134810;27;20399;-89
2022/05/30 00:13:46;;;;;;;;;;;10.60;99.90;;;;;;5136716;27;19907;-85
2022/05/30 00:16:14;;;;;;;;;;;10.60;99.90;;;;;;5135273;27;19907;-88
2022/05/30 00:18:40;;;;;;;;;;;10.50;99.90;;;;;;5134876;27;19907;-88
2022/05/30 00:21:05;;;;;;;;;;;10.50;99.90;;;;;;5136111;27;19932;-86
2022/05/30 00:23:31;;;;;;;;;;;10.50;99.90;;;;;;5134892;27;19907;-87
2022/05/30 00:25:57;;;;;;;;;;;10.50;99.90;;;;;;5136230;27;19915;-88
2022/05/30 00:28:23;;;;;;;;;;;10.50;99.90;;;;;;5136280;27;19972;-89
2022/05/30 00:30:49;;;;;;;;;;;10.50;99.90;;;;;;5135777;27;20357;-88
2022/05/30 00:33:15;;;;;;;;;;;10.50;99.90;;;;;;5134537;27;19910;-90
2022/05/30 00:35:41;;;;;;;;;;;10.40;99.90;;;;;;5134727;27;19998;-88
2022/05/30 00:38:07;;;;;;;;;;;10.30;99.90;;;;;;5135695;27;19903;-87
2022/05/30 00:40:33;;;;;;;;;;;10.30;99.90;;;;;;5135808;27;19914;-89
2022/05/30 00:43:17;;;;;;;;;;;10.20;99.90;;;;;;5135652;27;19915;-87
2022/05/30 00:45:43;;;;;;;;;;;10.20;99.90;;;;;;5135110;27;19918;-86
2022/05/30 00:48:08;;;;;;;;;;;10.10;99.90;;;;;;5134827;27;19907;-88
2022/05/30 00:50:35;;;;;;;;;;;10.10;99.90;;;;;;5134494;27;19908;-87
2022/05/30 00:53:00;;;;;;;;;;;10.10;99.90;;;;;;5135664;27;20363;-88
2022/05/30 00:55:27;;;;;;;;;;;10.10;99.90;;;;;;5136915;27;19956;-87
2022/05/30 00:57:53;;;;;;;;;;;10.00;99.90;;;;;;5135590;27;19903;-83
2022/05/30 01:00:24;;;;;;;;;;;9.90;99.90;;;;;;5136460;27;19908;-84
2022/05/30 01:08:18;;;;;;;;;;;9.70;99.90;;;;;;5160220;27;19953;-83
2022/05/30 01:10:44;;;;;;;;;;;9.60;99.90;;;;;;5159825;27;20367;-81
2022/05/30 01:13:10;;;;;;;;;;;9.50;99.90;;;;;;5161724;27;19891;-80
2022/05/30 01:15:36;;;;;;;;;;;9.40;99.90;;;;;;5161174;27;19911;-81
2022/05/30 01:18:10;;;;;;;;;;;9.30;99.90;;;;;;5161898;27;19907;-81
2022/05/30 01:20:54;;;;;;;;;;;9.30;99.90;;;;;;5161501;27;19903;-81
2022/05/30 01:23:23;;;;;;;;;;;9.30;99.90;;;;;;5160537;27;19891;-81
2022/05/30 01:25:58;;;;;;;;;;;9.30;99.90;;;;;;5160670;27;19896;-80
2022/05/30 05:48:47;;;;;;;;;;;17.10;99.90;;;;;;5210388;22;20377;-90
2022/05/30 05:51:18;;;;;;;;;;;18.10;99.90;;;;;;5073050;28;19912;-89
2022/05/30 05:53:44;;;;;;;;;;;18.40;98.20;;;;;;5055093;28;19909;-92
2022/05/30 05:56:14;;;;;;;;;;;19.00;95.00;;;;;;5073127;28;19919;-92
2022/05/30 05:58:39;;;;;;;;;;;19.80;90.70;;;;;;5055050;28;19948;-89
2022/05/30 06:01:06;;;;;;;;;;;20.40;83.40;;;;;;5072414;28;20364;-88
2022/05/30 06:03:31;;;;;;;;;;;21.30;75.50;;;;;;5072465;28;19908;-87
2022/05/30 06:05:57;;;;;;;;;;;22.40;70.70;;;;;;5072064;28;20430;-85
2022/05/30 06:08:22;;;;;;;;;;;23.30;65.00;;;;;;5071962;28;19908;-85
2022/05/30 06:11:08;;;;;;;;;;;23.80;61.00;;;;;;5071865;28;19981;-85
2022/05/30 06:13:37;;;;;;;;;;;24.00;59.10;;;;;;5053833;28;19912;-86
2022/05/30 06:16:06;;;;;;;;;;;24.00;57.40;;;;;;5071815;28;19912;-86
2022/05/30 06:18:32;;;;;;;;;;;23.90;56.30;;;;;;5072588;28;20387;-90
2022/05/30 06:20:58;;;;;;;;;;;23.60;55.30;;;;;;5074190;28;19913;-90
2022/05/30 06:23:24;;;;;;;;;;;23.40;55.90;;;;;;5074192;28;19904;-90
2022/05/30 06:25:49;;;;;;;;;;;23.40;56.80;;;;;;5055953;28;19928;-90
2022/05/30 06:28:15;;;;;;;;;;;23.80;54.00;;;;;;5056318;28;20361;-89
2022/05/30 06:30:40;;;;;;;;;;;24.10;53.50;;;;;;5073636;28;19904;-89
2022/05/30 06:33:06;;;;;;;;;;;24.40;51.40;;;;;;5073926;28;19914;-85
2022/05/30 06:35:31;;;;;;;;;;;24.90;50.10;;;;;;5073753;28;19955;-86
2022/05/30 06:37:57;;;;;;;;;;;25.20;50.00;;;;;;5073270;28;20341;-86
2022/05/30 06:40:24;;;;;;;;;;;25.20;48.30;;;;;;5055956;28;19995;-86
2022/05/30 06:42:49;;;;;;;;;;;25.00;49.40;;;;;;5073327;28;19904;-87
2022/05/30 06:45:15;;;;;;;;;;;24.80;48.10;;;;;;5056038;28;20003;-87
2022/05/30 06:47:41;;;;;;;;;;;24.70;49.30;;;;;;5073480;28;19924;-87
2022/05/30 06:50:07;;;;;;;;;;;24.90;47.70;;;;;;5073403;28;19909;-88
2022/05/30 06:52:34;;;;;;;;;;;25.80;45.60;;;;;;5073101;28;20335;-89
2022/05/30 06:55:00;;;;;;;;;;;26.20;45.10;;;;;;5073379;28;19908;-88
2022/05/30 07:00:10;;;;;;;;;;;27.40;39.10;;;;;;5073159;28;19958;-88
2022/05/30 07:02:36;;;;;;;;;;;27.50;40.20;;;;;;5055368;28;19905;-88
2022/05/30 07:05:02;;;;;;;;;;;27.80;38.60;;;;;;5055556;28;19950;-89
2022/05/30 07:07:27;;;;;;;;;;;28.40;37.50;;;;;;5072660;28;19962;-88
2022/05/30 07:09:53;;;;;;;;;;;28.60;36.70;;;;;;5073142;28;19908;-87
2022/05/30 07:12:19;;;;;;;;;;;28.90;36.50;;;;;;5054928;28;20048;-87
2022/05/30 07:14:44;;;;;;;;;;;28.60;36.80;;;;;;5054922;28;20307;-89
2022/05/30 07:17:10;;;;;;;;;;;28.60;38.00;;;;;;5073180;28;19958;-87
2022/05/30 07:19:36;;;;;;;;;;;28.60;36.50;;;;;;5072024;28;20459;-84
2022/05/30 07:22:02;;;;;;;;;;;28.20;35.30;;;;;;5070838;28;20003;-85
2022/05/30 07:24:27;;;;;;;;;;;28.00;35.90;;;;;;5071724;28;19958;-86
2022/05/30 07:26:53;;;;;;;;;;;28.10;36.30;;;;;;5052602;28;19917;-85
2022/05/30 07:29:18;;;;;;;;;;;27.90;36.70;;;;;;5071204;28;19908;-88
2022/05/30 07:31:44;;;;;;;;;;;28.50;35.80;;;;;;5072774;28;19905;-87
2022/05/30 07:34:09;;;;;;;;;;;28.20;34.20;;;;;;5072369;28;19908;-86
2022/05/30 07:36:35;;;;;;;;;;;27.60;36.40;;;;;;5054531;28;19905;-86
2022/05/30 07:39:01;;;;;;;;;;;27.00;38.10;;;;;;5072037;28;19908;-85
2022/05/30 07:41:28;;;;;;;;;;;27.50;37.50;;;;;;5072014;28;20000;-87
2022/05/30 07:43:53;;;;;;;;;;;27.90;37.10;;;;;;5072440;28;19950;-89
2022/05/30 07:46:19;;;;;;;;;;;28.30;35.20;;;;;;5073100;28;19916;-88
2022/05/30 07:48:46;;;;;;;;;;;28.00;33.90;;;;;;5072468;28;19927;-88
2022/05/30 07:51:12;;;;;;;;;;;28.00;34.10;;;;;;5072951;28;19908;-88
2022/05/30 07:53:38;;;;;;;;;;;27.80;34.50;;;;;;5072844;28;19971;-89
2022/05/30 07:56:05;;;;;;;;;;;27.70;36.00;;;;;;5071996;28;19904;-86
2022/05/30 07:58:31;;;;;;;;;;;28.30;34.40;;;;;;5053836;28;19904;-85
2022/05/30 08:00:57;;;;;;;;;;;28.50;34.40;;;;;;5071699;28;19912;-88
2022/05/30 08:03:25;;;;;;;;;;;28.40;32.60;;;;;;5073183;28;19910;-87
2022/05/30 08:06:01;;;;;;;;;;;28.40;34.20;;;;;;5076330;28;19935;-88
2022/05/30 08:08:26;;;;;;;;;;;28.50;33.00;;;;;;5056856;28;20369;-87
2022/05/30 08:10:52;;;;;;;;;;;29.10;33.00;;;;;;5073610;28;19915;-85
2022/05/30 08:13:17;;;;;;;;;;;29.20;32.60;;;;;;5057801;28;20319;-87
2022/05/30 08:15:43;;;;;;;;;;;29.00;31.80;;;;;;5058079;28;20494;-85
2022/05/30 08:18:13;;;;;;;;;;;29.10;32.60;;;;;;5057465;28;19904;-85
2022/05/30 08:20:38;;;;;;;;;;;29.20;32.60;;;;;;5056686;28;19915;-86
2022/05/30 08:23:04;;;;;;;;;;;29.40;32.00;;;;;;5073831;28;19908;-87
2022/05/30 08:25:30;;;;;;;;;;;29.50;31.50;;;;;;5075607;28;19919;-85
2022/05/30 08:27:55;;;;;;;;;;;29.40;29.90;;;;;;5074314;28;19908;-87
2022/05/30 08:30:21;;;;;;;;;;;29.30;32.20;;;;;;5056701;28;19912;-84
2022/05/30 08:32:47;;;;;;;;;;;29.40;30.30;;;;;;5074498;28;19924;-86
2022/05/30 08:35:14;;;;;;;;;;;29.30;32.00;;;;;;5073963;28;19908;-86
2022/05/30 08:37:40;;;;;;;;;;;29.10;31.50;;;;;;5056257;28;20076;-86
2022/05/30 08:42:53;;;;;;;;;;;29.00;32.40;;;;;;5060679;28;20406;-88
2022/05/30 08:45:20;;;;;;;;;;;28.90;32.70;;;;;;5057051;28;19913;-86
2022/05/30 08:47:54;;;;;;;;;;;29.20;31.20;;;;;;5056125;28;19916;-86
2022/05/30 08:50:23;;;;;;;;;;;28.60;32.10;;;;;;5057106;28;20376;-87
2022/05/30 08:52:57;;;;;;;;;;;28.10;32.30;;;;;;5075334;28;19905;-89
2022/05/30 08:55:28;;;;;;;;;;;27.90;32.60;;;;;;5057834;28;19999;-88
2022/05/30 08:57:59;;;;;;;;;;;27.60;32.60;;;;;;5075554;28;20428;-88
2022/05/30 09:00:54;;;;;;;;;;;27.40;33.00;;;;;;5057543;28;19904;-88
2022/05/30 09:03:38;;;;;;;;;;;27.30;33.40;;;;;;5044527;28;19948;-86
2022/05/30 09:06:11;;;;;;;;;;;27.90;33.00;;;;;;5074579;28;19912;-87
2022/05/30 09:08:39;;;;;;;;;;;28.30;33.40;;;;;;5057387;28;19911;-87
2022/05/30 09:11:24;;;;;;;;;;;28.70;32.40;;;;;;5075475;28;19911;-87
2022/05/30 09:13:50;;;;;;;;;;;28.90;32.10;;;;;;5074952;28;19908;-88
2022/05/30 09:16:19;;;;;;;;;;;28.80;32.20;;;;;;5057214;28;19905;-86
2022/05/30 09:18:52;;;;;;;;;;;29.10;31.20;;;;;;5057915;28;19912;-88
2022/05/30 09:21:18;;;;;;;;;;;28.70;31.50;;;;;;5057113;28;20287;-87
2022/05/30 09:23:44;;;;;;;;;;;28.80;32.80;;;;;;5074573;28;19912;-87
2022/05/30 09:26:12;;;;;;;;;;;28.40;32.20;;;;;;5074640;28;19921;-88
2022/05/30 09:28:41;;;;;;;;;;;27.80;32.50;;;;;;5074611;28;20300;-87
2022/05/30 09:31:16;;;;;;;;;;;27.40;32.60;;;;;;5056159;28;19914;-85
2022/05/30 09:33:47;;;;;;;;;;;26.80;33.50;;;;;;5074724;28;20239;-88
2022/05/30 09:36:13;;;;;;;;;;;26.20;35.10;;;;;;5056333;28;20009;-90
2022/05/30 09:38:42;;;;;;;;;;;25.70;35.80;;;;;;5074631;28;19908;-89
2022/05/30 09:41:12;;;;;;;;;;;25.20;36.60;;;;;;5074244;28;20357;-90
2022/05/30 09:43:55;;;;;;;;;;;24.70;37.00;;;;;;5074472;28;19915;-92
2022/05/30 09:46:21;;;;;;;;;;;24.20;37.50;;;;;;5056830;28;19912;-92
2022/05/30 09:49:00;;;;;;;;;;;23.90;38.70;;;;;;5074003;28;20323;-93
2022/05/30 09:51:33;;;;;;;;;;;23.80;39.50;;;;;;5074773;28;19912;-92
2022/05/30 09:53:59;;;;;;;;;;;23.60;39.30;;;;;;5073404;28;20376;-92
2022/05/30 09:56:27;;;;;;;;;;;23.60;40.00;;;;;;5055185;28;19911;-90
2022/05/30 09:59:11;;;;;;;;;;;24.30;39.00;;;;;;5073204;28;19977;-87
2022/05/30 10:01:36;;;;;;;;;;;25.10;38.40;;;;;;5055309;28;20404;-90
2022/05/30 10:04:16;;;;;;;;;;;25.20;36.60;;;;;;5072850;28;20377;-91
2022/05/30 10:06:42;;;;;;;;;;;24.90;37.50;;;;;;5072912;28;19918;-92
2022/05/30 10:09:08;;;;;;;;;;;24.60;37.00;;;;;;5054770;28;19905;-91
2022/05/30 10:11:34;;;;;;;;;;;24.20;38.40;;;;;;5073022;28;19908;-94
2022/05/30 10:14:15;;;;;;;;;;;24.10;39.40;;;;;;5056073;28;19908;-92
2022/05/30 10:16:41;;;;;;;;;;;24.30;38.50;;;;;;5056571;28;20034;-91
2022/05/30 10:19:09;;;;;;;;;;;24.50;37.40;;;;;;5073380;28;20482;-92
2022/05/30 10:30:16;;;;;;;;;;;24.10;38.10;;;;;;5072639;28;20270;-91
2022/05/30 10:33:05;;;;;;;;;;;24.10;38.30;;;;;;5072681;28;19954;-92
2022/05/30 10:35:46;;;;;;;;;;;24.20;38.40;;;;;;5054603;28;19908;-91
2022/05/30 10:38:19;;;;;;;;;;;24.30;38.30;;;;;;5049430;28;19908;-91
2022/05/30 10:41:04;;;;;;;;;;;24.50;37.50;;;;;;5054317;28;19975;-87
2022/05/30 10:43:47;;;;;;;;;;;24.80;38.10;;;;;;5072318;28;20332;-90
2022/05/30 10:46:16;;;;;;;;;;;25.00;36.30;;;;;;5055038;28;19917;-90
2022/05/30 10:48:56;;;;;;;;;;;25.10;36.60;;;;;;5053398;28;19920;-90
2022/05/30 10:51:25;;;;;;;;;;;25.00;36.70;;;;;;5067649;28;19908;-90
2022/05/30 10:53:54;;;;;;;;;;;25.00;37.40;;;;;;5070358;28;19948;-89
2022/05/30 10:56:23;;;;;;;;;;;25.00;36.90;;;;;;5071763;28;20361;-93
2022/05/30 10:58:52;;;;;;;;;;;25.20;37.40;;;;;;5072387;28;19905;-92
2022/05/30 11:01:28;;;;;;;;;;;25.20;37.00;;;;;;5054408;28;19910;-90
2022/05/30 11:04:16;;;;;;;;;;;25.20;37.40;;;;;;5054952;28;19962;-91
2022/05/30 11:06:44;;;;;;;;;;;25.00;37.00;;;;;;5054107;28;19919;-92
2022/05/30 11:09:28;;;;;;;;;;;24.60;36.00;;;;;;5054502;28;19911;-93
2022/05/30 11:12:06;;;;;;;;;;;24.40;37.10;;;;;;5071996;28;19991;-91
2022/05/30 11:14:38;;;;;;;;;;;24.50;37.60;;;;;;5071158;28;19961;-92
2022/05/30 11:17:11;;;;;;;;;;;24.40;38.20;;;;;;5071189;28;19911;-91
2022/05/30 11:19:48;;;;;;;;;;;24.60;38.80;;;;;;5070551;28;19940;-90
2022/05/30 11:22:17;;;;;;;;;;;24.60;38.60;;;;;;5052990;28;19904;-93
2022/05/30 11:24:46;;;;;;;;;;;24.60;38.70;;;;;;5051950;28;20091;-92
2022/05/30 11:27:32;;;;;;;;;;;24.50;38.60;;;;;;5053950;28;19912;-92
2022/05/30 11:30:10;;;;;;;;;;;24.60;38.20;;;;;;5033145;28;19916;-90
2022/05/30 11:32:35;;;;;;;;;;;24.60;38.10;;;;;;5033804;28;20274;-91
2022/05/30 11:35:01;;;;;;;;;;;24.50;37.70;;;;;;5052044;28;19912;-93
2022/05/30 11:37:45;;;;;;;;;;;24.50;37.80;;;;;;5035530;28;19962;-90
2022/05/30 11:40:10;;;;;;;;;;;24.30;37.60;;;;;;5058197;28;19962;-93
2022/05/30 11:42:42;;;;;;;;;;;24.20;37.60;;;;;;5057321;28;20084;-92
2022/05/30 11:45:31;;;;;;;;;;;24.30;38.20;;;;;;5040043;28;20268;-91
2022/05/30 11:48:14;;;;;;;;;;;24.40;37.70;;;;;;5039725;28;19920;-91
2022/05/30 11:51:01;;;;;;;;;;;24.40;36.80;;;;;;5039527;28;19912;-91
2022/05/30 11:53:45;;;;;;;;;;;24.40;37.80;;;;;;5057598;28;19944;-90
2022/05/30 11:56:11;;;;;;;;;;;24.60;37.20;;;;;;5039795;28;20546;-92
2022/05/30 11:58:45;;;;;;;;;;;24.50;36.60;;;;;;5058202;28;19905;-92
2022/05/30 12:01:11;;;;;;;;;;;24.40;36.30;;;;;;5038731;28;19940;-90
2022/05/30 12:03:46;;;;;;;;;;;24.10;36.50;;;;;;5037598;28;19950;-90
2022/05/30 12:06:28;;;;;;;;;;;24.00;36.60;;;;;;5040812;28;19935;-91
2022/05/30 12:09:02;;;;;;;;;;;24.00;36.40;;;;;;5046319;28;19920;-89
2022/05/30 12:11:27;;;;;;;;;;;24.10;37.80;;;;;;5036239;28;19987;-90
2022/05/30 12:13:52;;;;;;;;;;;24.10;37.20;;;;;;5043836;28;19926;-90
2022/05/30 12:16:37;;;;;;;;;;;24.00;37.90;;;;;;5047470;28;20054;-90
2022/05/30 12:24:49;;;;;;;;;;;23.70;38.10;;;;;;5042012;28;19920;-92
2022/05/30 12:27:27;;;;;;;;;;;23.60;38.80;;;;;;5058208;28;19924;-92
2022/05/30 12:29:53;;;;;;;;;;;23.50;38.20;;;;;;5059143;28;20377;-90
2022/05/30 12:32:22;;;;;;;;;;;23.50;38.70;;;;;;5066995;28;19916;-91
2022/05/30 12:37:46;;;;;;;;;;;23.60;39.60;;;;;;5048926;28;19947;-93
2022/05/30 12:40:26;;;;;;;;;;;23.50;39.20;;;;;;5067778;28;20292;-94
2022/05/30 12:43:03;;;;;;;;;;;23.40;40.10;;;;;;5061605;28;19978;-92
2022/05/30 12:45:40;;;;;;;;;;;23.20;39.30;;;;;;5061735;28;19949;-92
2022/05/30 12:48:17;;;;;;;;;;;23.10;39.70;;;;;;5064460;28;19916;-91
2022/05/30 12:50:44;;;;;;;;;;;23.00;39.60;;;;;;5059764;28;19923;-92
2022/05/30 12:53:10;;;;;;;;;;;22.90;39.80;;;;;;5056916;28;20304;-92
2022/05/30 12:55:39;;;;;;;;;;;22.90;39.60;;;;;;5063674;28;19916;-91
2022/05/30 12:58:05;;;;;;;;;;;23.00;39.60;;;;;;5068160;28;19987;-92
2022/05/30 13:00:40;;;;;;;;;;;23.10;39.20;;;;;;5054728;28;19920;-93
2022/05/30 13:03:24;;;;;;;;;;;23.10;39.10;;;;;;5062625;28;20306;-94
2022/05/30 13:06:16;;;;;;;;;;;23.10;38.40;;;;;;5050452;28;19917;-91
2022/05/30 13:08:54;;;;;;;;;;;23.00;38.90;;;;;;5037711;28;19924;-94
2022/05/30 13:11:32;;;;;;;;;;;23.10;38.60;;;;;;5042124;28;19921;-92
2022/05/30 13:14:03;;;;;;;;;;;23.00;38.30;;;;;;5036383;28;19929;-93
2022/05/30 13:16:36;;;;;;;;;;;22.90;39.00;;;;;;5035877;28;19921;-89
2022/05/30 13:19:04;;;;;;;;;;;22.90;38.50;;;;;;5023299;28;19943;-91
2022/05/30 13:21:30;;;;;;;;;;;22.70;39.60;;;;;;5042006;28;20474;-92
2022/05/30 13:23:55;;;;;;;;;;;22.70;40.30;;;;;;5048770;28;19920;-91
2022/05/30 13:26:21;;;;;;;;;;;22.60;41.00;;;;;;5063786;28;19951;-92
2022/05/30 13:28:48;;;;;;;;;;;22.50;40.80;;;;;;5055346;28;19921;-90
2022/05/30 13:31:14;;;;;;;;;;;22.50;40.90;;;;;;5048347;28;19916;-90
2022/05/30 13:33:41;;;;;;;;;;;22.50;40.70;;;;;;5062507;28;19916;-90
2022/05/30 13:36:15;;;;;;;;;;;22.50;40.90;;;;;;5050667;28;19920;-90
2022/05/30 13:38:42;;;;;;;;;;;22.50;40.90;;;;;;5066328;28;19917;-92
2022/05/30 13:41:34;;;;;;;;;;;22.60;40.10;;;;;;5066230;28;19912;-90
2022/05/30 13:44:00;;;;;;;;;;;22.50;40.40;;;;;;5041459;28;19920;-90
2022/05/30 13:46:30;;;;;;;;;;;22.60;40.80;;;;;;5053254;28;19913;-93
2022/05/30 13:48:55;;;;;;;;;;;22.60;40.90;;;;;;5045265;28;20008;-92
2022/05/30 13:51:26;;;;;;;;;;;22.50;40.70;;;;;;5056506;28;19958;-89
2022/05/30 13:53:52;;;;;;;;;;;22.50;40.50;;;;;;5048935;28;19919;-91
2022/05/30 13:56:17;;;;;;;;;;;22.50;40.50;;;;;;5059163;28;20520;-92
2022/05/30 13:58:46;;;;;;;;;;;22.50;40.30;;;;;;5052693;28;20002;-94
2022/05/30 14:01:15;;;;;;;;;;;22.60;40.80;;;;;;5064637;28;19927;-92
2022/05/30 14:03:48;;;;;;;;;;;22.50;40.20;;;;;;5062948;28;19923;-93
2022/05/30 14:06:34;;;;;;;;;;;22.50;41.00;;;;;;5059367;28;19994;-92
2022/05/30 14:09:00;;;;;;;;;;;22.50;40.90;;;;;;5057723;28;20015;-91
2022/05/30 14:11:28;;;;;;;;;;;22.40;41.20;;;;;;5053333;28;20008;-92
2022/05/30 14:13:54;;;;;;;;;;;22.50;40.90;;;;;;5055068;28;20273;-92
2022/05/30 14:16:34;;;;;;;;;;;22.50;41.20;;;;;;5055961;28;20072;-92
2022/05/30 14:19:26;;;;;;;;;;;22.50;41.50;;;;;;5057670;28;19921;-91
2022/05/30 14:21:58;;;;;;;;;;;22.40;41.60;;;;;;5055180;28;19920;-93
2022/05/30 14:24:30;;;;;;;;;;;22.50;42.10;;;;;;5060308;28;19920;-90
2022/05/30 14:26:56;;;;;;;;;;;22.40;41.60;;;;;;5047440;28;19923;-91
2022/05/30 14:29:22;;;;;;;;;;;22.40;42.30;;;;;;5055033;28;19971;-91
2022/05/30 14:31:59;;;;;;;;;;;22.50;41.80;;;;;;5055499;28;19952;-90
2022/05/30 14:34:32;;;;;;;;;;;22.40;42.50;;;;;;5071705;28;19912;-92
2022/05/30 14:36:58;;;;;;;;;;;22.40;42.50;;;;;;5052512;28;19923;-91
2022/05/30 14:39:25;;;;;;;;;;;22.20;42.80;;;;;;5054768;28;20035;-91
2022/05/30 14:41:59;;;;;;;;;;;22.00;43.20;;;;;;5050516;28;19920;-91
2022/05/30 14:44:47;;;;;;;;;;;21.90;43.20;;;;;;5056361;28;19917;-91
2022/05/30 14:47:22;;;;;;;;;;;21.80;43.50;;;;;;5061460;28;20296;-90
2022/05/30 14:49:53;;;;;;;;;;;21.80;44.00;;;;;;5062309;28;19920;-90
2022/05/30 14:52:30;;;;;;;;;;;21.60;44.00;;;;;;5053654;28;19921;-90
2022/05/30 14:54:55;;;;;;;;;;;21.50;44.60;;;;;;5059155;28;19938;-87
2022/05/30 14:57:22;;;;;;;;;;;21.40;44.50;;;;;;5054077;28;20381;-88
2022/05/30 14:59:48;;;;;;;;;;;21.30;45.00;;;;;;5056072;28;19920;-87
2022/05/30 15:04:02;;;;;;;;;;;21.20;44.90;;;;;;5057192;28;20360;-89
2022/05/30 15:05:01;;;;;;;;;;;21.10;45.20;;;;;;5042941;28;19924;-89
2022/05/30 15:07:28;;;;;;;;;;;21.00;45.10;;;;;;5045006;28;19939;-88
2022/05/30 15:09:54;;;;;;;;;;;21.00;45.40;;;;;;5042433;28;19960;-88
2022/05/30 15:12:19;;;;;;;;;;;20.90;45.70;;;;;;5051907;28;19955;-88
2022/05/30 15:14:45;;;;;;;;;;;20.90;46.60;;;;;;5055266;28;19913;-90
2022/05/30 15:17:10;;;;;;;;;;;20.90;47.40;;;;;;5040943;28;19921;-88
2022/05/30 15:19:36;;;;;;;;;;;20.80;47.90;;;;;;5060916;28;19935;-86
2022/05/30 15:22:05;;;;;;;;;;;20.80;47.70;;;;;;5044632;28;19916;-91
2022/05/30 15:24:33;;;;;;;;;;;20.80;48.20;;;;;;5034706;28;19908;-86
2022/05/30 15:27:00;;;;;;;;;;;20.80;48.50;;;;;;5052689;28;19916;-89
2022/05/30 15:29:26;;;;;;;;;;;20.70;48.80;;;;;;5034892;28;19963;-90
2022/05/30 15:31:52;;;;;;;;;;;20.70;49.00;;;;;;5052266;28;20384;-88
2022/05/30 15:34:18;;;;;;;;;;;20.70;49.10;;;;;;5052446;28;20289;-88
2022/05/30 15:36:44;;;;;;;;;;;20.70;49.30;;;;;;5052398;28;20377;-90
2022/05/30 15:39:10;;;;;;;;;;;20.60;48.50;;;;;;5052555;28;19912;-89
2022/05/30 15:41:36;;;;;;;;;;;20.60;48.20;;;;;;5052564;28;19909;-88
2022/05/30 15:44:02;;;;;;;;;;;20.50;48.90;;;;;;5034672;28;19915;-90
2022/05/30 15:46:27;;;;;;;;;;;20.50;48.70;;;;;;5052406;28;20300;-88
2022/05/30 15:48:53;;;;;;;;;;;20.50;48.90;;;;;;5034865;28;19920;-87
2022/05/30 15:51:19;;;;;;;;;;;20.50;48.90;;;;;;5067747;28;19934;-88
2022/05/30 15:59:16;;;;;;;;;;;20.20;49.60;;;;;;5060882;28;19916;-87
2022/05/30 16:01:42;;;;;;;;;;;20.20;49.60;;;;;;5080761;28;19936;-86
2022/05/30 16:04:08;;;;;;;;;;;20.10;50.20;;;;;;5050979;28;19915;-89
2022/05/30 16:06:34;;;;;;;;;;;20.10;50.20;;;;;;5061850;28;19919;-88
2022/05/30 16:09:02;;;;;;;;;;;20.00;50.30;;;;;;5063649;28;19939;-88
2022/05/30 16:11:28;;;;;;;;;;;20.00;50.70;;;;;;5065247;28;20303;-88
2022/05/30 16:13:53;;;;;;;;;;;20.00;50.90;;;;;;5065349;28;19951;-82
2022/05/30 16:16:20;;;;;;;;;;;20.00;50.80;;;;;;5081390;28;19904;-88
2022/05/30 16:18:46;;;;;;;;;;;19.90;50.50;;;;;;5065717;28;20349;-87
2022/05/30 16:21:13;;;;;;;;;;;19.90;50.80;;;;;;5084522;28;19904;-87
2022/05/30 16:23:39;;;;;;;;;;;19.90;50.90;;;;;;5083447;28;19968;-86
2022/05/30 16:26:06;;;;;;;;;;;19.80;51.10;;;;;;5090742;28;19912;-87
2022/05/30 16:28:32;;;;;;;;;;;19.80;51.20;;;;;;5092276;28;19943;-87
2022/05/30 16:30:57;;;;;;;;;;;19.80;50.90;;;;;;5076415;28;19904;-87
2022/05/30 16:33:23;;;;;;;;;;;19.80;51.40;;;;;;5098083;28;19967;-87
2022/05/30 16:35:50;;;;;;;;;;;19.70;51.60;;;;;;5080116;28;19980;-85
2022/05/30 16:38:16;;;;;;;;;;;19.70;52.00;;;;;;5098368;28;19889;-86
2022/05/30 16:40:42;;;;;;;;;;;19.70;52.20;;;;;;5098170;28;19972;-87
2022/05/30 16:43:08;;;;;;;;;;;19.70;52.00;;;;;;5097613;28;19905;-85
2022/05/30 16:45:33;;;;;;;;;;;19.70;52.10;;;;;;5095745;28;19967;-85
2022/05/30 16:47:59;;;;;;;;;;;19.70;52.20;;;;;;5074512;28;19926;-89
2022/05/30 16:50:25;;;;;;;;;;;19.80;52.30;;;;;;5057538;28;19913;-88
2022/05/30 16:52:50;;;;;;;;;;;20.00;52.30;;;;;;5064571;28;19955;-88
2022/05/30 16:55:16;;;;;;;;;;;20.10;52.20;;;;;;5060425;28;19904;-86
2022/05/30 16:57:42;;;;;;;;;;;20.20;51.20;;;;;;5059202;28;19970;-88
2022/05/30 17:00:09;;;;;;;;;;;20.30;51.00;;;;;;5043193;28;19915;-88
2022/05/30 17:02:36;;;;;;;;;;;20.40;50.50;;;;;;5061824;28;19919;-88
2022/05/30 17:05:02;;;;;;;;;;;20.40;50.50;;;;;;5063233;28;19909;-86
2022/05/30 17:07:28;;;;;;;;;;;20.30;51.00;;;;;;5064930;28;19913;-86
2022/05/30 17:09:53;;;;;;;;;;;20.30;50.80;;;;;;5053665;28;19912;-86
2022/05/30 17:12:19;;;;;;;;;;;20.10;51.50;;;;;;5074754;28;20259;-87
2022/05/30 17:14:44;;;;;;;;;;;19.90;51.80;;;;;;5077287;28;19972;-87
2022/05/30 17:17:16;;;;;;;;;;;19.90;52.00;;;;;;5083590;28;19916;-87
2022/05/30 17:19:42;;;;;;;;;;;19.90;52.20;;;;;;5083774;28;19911;-85
2022/05/30 17:22:09;;;;;;;;;;;19.90;52.90;;;;;;5096996;28;19914;-85
2022/05/30 17:24:35;;;;;;;;;;;19.90;52.80;;;;;;5096657;28;20312;-86
2022/05/30 17:29:46;;;;;;;;;;;19.80;53.00;;;;;;5079609;28;19931;-86
2022/05/30 17:32:14;;;;;;;;;;;19.80;53.10;;;;;;5080222;28;19889;-84
2022/05/30 17:34:40;;;;;;;;;;;19.70;53.20;;;;;;5064028;28;19892;-80
2022/05/30 17:37:06;;;;;;;;;;;19.60;53.30;;;;;;5081456;28;19900;-76
2022/05/30 17:39:31;;;;;;;;;;;19.50;54.30;;;;;;5081718;28;19968;-75
2022/05/30 17:41:58;;;;;;;;;;;19.50;54.00;;;;;;5064515;28;19899;-75
2022/05/30 17:44:24;;;;;;;;;;;19.30;54.10;;;;;;5081632;28;19893;-75
2022/05/30 17:46:55;;;;;;;;;;;19.20;54.80;;;;;;5081438;28;19927;-74
2022/05/30 17:49:36;;;;;;;;;;;19.00;55.20;;;;;;5081423;28;19983;-74
2022/05/30 17:52:02;;;;;;;;;;;18.90;55.60;;;;;;5081531;28;19915;-76
2022/05/30 17:54:28;;;;;;;;;;;18.80;56.10;;;;;;5081420;28;19893;-74
2022/05/30 17:56:54;;;;;;;;;;;18.70;56.50;;;;;;5064379;28;19912;-76
2022/05/30 17:59:20;;;;;;;;;;;18.60;56.70;;;;;;5064310;28;19900;-76
2022/05/30 18:01:46;;;;;;;;;;;18.50;57.00;;;;;;5064194;28;19916;-76
2022/05/30 18:04:12;;;;;;;;;;;18.40;57.60;;;;;;5081295;28;19893;-77
2022/05/30 18:07:16;;;;;;;;;;;18.30;58.00;;;;;;5063969;28;19903;-78
2022/05/30 18:09:42;;;;;;;;;;;18.20;58.70;;;;;;5004414;28;19893;-76
2022/05/30 18:12:11;;;;;;;;;;;18.10;59.30;;;;;;5004464;28;19917;-76
2022/05/30 18:14:46;;;;;;;;;;;18.10;59.90;;;;;;5034002;28;19900;-78
2022/05/30 18:17:16;;;;;;;;;;;18.00;60.10;;;;;;5063873;28;19912;-77
2022/05/30 18:19:49;;;;;;;;;;;17.90;60.80;;;;;;5080940;28;19893;-77
2022/05/30 18:22:33;;;;;;;;;;;17.90;61.50;;;;;;5080950;28;19893;-77
2022/05/30 18:25:08;;;;;;;;;;;17.80;61.90;;;;;;5080832;28;19916;-77
2022/05/30 22:07:06;;;;;;;6.57;1.57;;;12.40;99.90;;;;;;5190309;27;20392;-86
2022/05/30 22:09:32;;;;;;;6.47;1.00;;;12.40;99.90;;;;;;5171317;27;20030;-88
2022/05/30 22:11:58;;;;;;;;;;;12.50;99.90;;;;;;5171262;27;20034;-88
2022/05/30 22:14:24;;;;;;;4.13;1.00;;;12.40;99.90;;;;;;5169242;27;19914;-87
2022/05/30 22:16:50;;;;;;;;;;;12.40;99.90;;;;;;5150966;27;20034;-83
2022/05/30 22:19:15;;;;;;;7.07;1.10;;;12.40;99.90;;;;;;5169647;27;19903;-86
2022/05/30 22:21:41;;;;;;;;;;;12.40;99.90;;;;;;5170770;27;20026;-88
2022/05/30 22:24:07;;;;;;;4.65;1.10;;;12.40;99.90;;;;;;5151426;27;19918;-90
2022/05/30 22:26:33;;;;;;;;;;;12.40;99.90;;;;;;5149296;27;20031;-89
2022/05/30 22:28:59;;;;;;;2.10;1.00;;;12.30;99.90;;;;;;5149528;27;19903;-88
2022/05/30 22:31:27;;;;;;;6.63;1.20;;;12.30;99.90;;;;;;5131417;27;20031;-90
2022/05/30 22:33:53;;;;;;;3.08;0.90;;;12.30;99.90;;;;;;5148435;27;20695;-85
2022/05/30 22:36:19;;;;;;;;;;;12.20;99.90;;;;;;5149137;27;20102;-88
2022/05/30 22:38:45;;;;;;;3.03;0.95;;;12.20;99.90;;;;;;5148459;27;20006;-89
2022/05/30 22:41:13;;;;;;;1.90;0.70;;;12.20;99.90;;;;;;5129576;27;20054;-84
2022/05/30 22:43:39;;;;;;;6.15;1.52;;;12.20;99.90;;;;;;5128113;27;20536;-85
2022/05/30 22:46:04;;;;;;;;;;;12.20;99.90;;;;;;5137139;27;20035;-88
2022/05/30 22:48:31;;;;;;;1.98;0.82;;;12.20;99.90;;;;;;5142025;27;20275;-86
2022/05/30 22:51:12;;;;;;;2.20;0.80;;;12.20;99.90;;;;;;5127807;27;20035;-85
2022/05/30 22:53:41;;;;;;;3.47;1.10;;;12.20;99.90;;;;;;5148836;27;20114;-88
2022/05/30 22:56:07;;;;;;;2.58;1.00;;;12.30;99.90;;;;;;5147501;27;20035;-89
2022/05/30 22:58:33;;;;;;;;;;;12.30;99.90;;;;;;5147080;27;20590;-85
2022/05/30 23:00:59;;;;;;;3.30;0.90;;;12.20;99.90;;;;;;5146847;27;19907;-88